x

Corpus Christi, Tx - 60nm Sse Of Corpus Christi, Tx (42020) Wave Buoy

4:50pm - Sat 1st Aug 2015 All times are CDT. -5 hours from GMT.

  • Sig Wave height 1.0ft
  • Swell Direction
  • Peak Period 5s
  • Average Period 3s
  • Wind
    9mph, 11mph gusts
  • Sea Temp 87°f
  • Air Temp 85°f
  • Sea Pressure 1012.1mb
  • Corpus Christi, Tx - 60nm Sse Of Corpus Christi, Tx
  • Corpus Christi, Tx - 60nm Sse Of Corpus Christi, Tx

More Historic Weather Station data

Upgrade to MSW Pro to gain access to the past 30 days of data for over 8000 Wavebouys and Weather Stations around the globe.

Join Pro

Comparision Forecast

View Surf forecast
   
Sat 08/01 4:50pm 1ft 5s 3s 9 11 mph 1012.1mb 87f 85f
3:50pm 1ft 5s 3s 7 9 mph 1012.7mb 87f 84f
2:50pm 0.7ft  -  3s 7 9 mph 1013mb 86f 84f
1:50pm 1ft 3s 3s 4 7 mph 1013.6mb 86f 84f
12:50pm 1ft 5s 3s 7 9 mph 1014mb 86f 83f
11:50am 1ft 5s 4s 9 11 mph 1014.1mb 86f 83f
10:50am 1ft 5s 3s 7 9 mph 1014.5mb 85f 83f
9:50am 1ft 5s 3s 9 11 mph 1014.5mb 85f 83f
8:50am 1ft 6s 4s 9 11 mph 1013.9mb 85f 82f
7:50am 1ft 6s 4s 7 9 mph 1013.4mb 85f 82f
6:50am 1ft 6s 4s 9
mph
1013mb 86f 82f
5:50am 1ft 6s 4s 9 11 mph 1012.8mb 86f 82f
4:50am 1ft 5s 4s 9 11 mph 1012.9mb 86f 82f
3:50am 1ft 6s 5s 9
mph
1013mb 86f 83f
2:50am 1ft 6s 5s 7
mph
1013.4mb 86f 83f
1:50am 1ft 5s 5s 7
mph
1013.8mb 86f 83f
12:50am 1ft 5s 5s 4 7 mph 1014.5mb 86f 84f
Fri 07/31 11:50pm 1ft 6s 5s 7
mph
1014.4mb 86f 83f
10:50pm 1ft 5s 5s 4
mph
1014.3mb 86f 83f
9:50pm 1ft 5s 5s 4 7 mph 1014.4mb 86f 83f
8:50pm 1ft 5s 4s 9 11 mph 1013.5mb 86f 84f
7:50pm 0.7ft  -  5s 9 11 mph 1013.2mb 86f 84f
6:50pm 0.7ft  -  5s 7 9 mph 1013.3mb 86f 84f
5:50pm 0.7ft  -  5s 9 11 mph 1013.8mb 86f 83f
4:50pm 0.7ft  -  4s 9
mph
1014mb 86f 83f
3:50pm 0.7ft  -  4s 4
mph
1014.9mb 86f 83f
2:50pm 0.7ft  -  4s  -  2 mph 1015.3mb 86f 84f
1:50pm 0.7ft  -  4s 2
mph
1016.1mb 86f 83f
12:50pm 0.7ft  -  4s 4 7 mph 1016.5mb 86f 82f
11:50am 0.7ft  -  4s 7 11 mph 1016.3mb 85f 82f
10:50am 0.7ft  -  4s 7 9 mph 1016.4mb 85f 82f
9:50am 0.7ft  -  3s 7 9 mph 1016.3mb 85f 82f
8:50am 0.7ft  -  3s 4 7 mph 1016.2mb 85f 82f
7:50am 1ft 6s 3s 7 9 mph 1015.8mb 85f 82f
6:50am 1ft 6s 4s 11 13 mph 1014.8mb 86f 82f
5:50am 1ft 6s 5s 13 16 mph 1014.5mb 86f 82f
4:50am 0.7ft  -  4s 9 11 mph 1015mb 86f 83f
3:50am 1ft 6s 5s 9 11 mph 1015.5mb 86f 83f
2:50am 0.7ft  -  5s 9 11 mph 1015.8mb 85f 83f
1:50am 1ft 6s 5s 9
mph
1016mb 85f 83f
12:50am 1ft 6s 5s 7
mph
1016.3mb 86f 84f
Thu 07/30 11:50pm 1ft 5s 4s 7 9 mph 1016.6mb 86f 84f
10:50pm 1ft 6s 5s 7 9 mph 1016.3mb 86f 84f
9:50pm 1ft 6s 5s 7
mph
1016.1mb 86f 84f
8:50pm 1ft 6s 5s 7 9 mph 1015.5mb 87f 85f
7:50pm 1ft 5s 5s 7 9 mph 1015.4mb 87f 85f
6:50pm 1ft 5s 5s 7
mph
1015.3mb 87f 85f
5:50pm 1ft 5s 5s 4 7 mph 1015.4mb 86f 85f
4:50pm 1ft 6s 5s 4 7 mph 1016mb 87f 85f
3:50pm 1ft 6s 5s 7 9 mph 1016.7mb 87f 85f
2:50pm 1.3ft 6s 5s 2 4 mph 1017.6mb 88f 84f
1:50pm 1.3ft 5s 4s 2 4 mph 1018mb 88f 84f
12:50pm 1.3ft 6s 4s 2 4 mph 1018.2mb 87f 84f
11:50am 1.3ft 6s 4s 2 4 mph 1018.4mb 86f 83f
10:50am 1.3ft 5s 4s 2 4 mph 1018.2mb 85f 83f
9:50am 1.3ft 6s 4s 7
mph
1017.9mb 85f 83f
8:50am 1.3ft 5s 4s 7
mph
1017.4mb 85f 83f
7:50am 1.3ft 5s 4s 7
mph
1017mb 85f 83f
6:50am 1.3ft 5s 4s 7 9 mph 1016.4mb 84f 83f
5:50am 1.3ft 5s 4s 9 11 mph 1015.8mb 84f 83f
4:50am 1.3ft 5s 4s 11
mph
1015.7mb 84f 83f
3:50am 1.6ft 6s 4s 11 13 mph 1015.7mb 85f 83f
2:50am 1.6ft 6s 4s 11 13 mph 1015.7mb 85f 83f
1:50am 1.6ft 5s 4s 11 13 mph 1016.2mb 85f 83f
12:50am 1.6ft 6s 4s 13 16 mph 1016.8mb 84f 84f
Wed 07/29 11:50pm 2ft 6s 4s 11 13 mph 1016.9mb 84f 84f
10:50pm 2ft 6s 4s 11 13 mph 1016.3mb 84f 84f
9:50pm 2ft 6s 4s 11 13 mph 1016.1mb 84f 84f
8:50pm 2.5ft 6s 4s 11 13 mph 1015.7mb 84f 84f
7:50pm 2.5ft 6s 4s 11 13 mph 1015.6mb 84f 84f
6:50pm 2.5ft 6s 4s 13 16 mph 1015.3mb 84f 84f
5:50pm 2.5ft 6s 4s 13 16 mph 1015.3mb 84f 84f
4:50pm 2.5ft 6s 4s 13 16 mph 1015.7mb 84f 84f
3:50pm 2.5ft 6s 5s 11 13 mph 1016.4mb 84f 85f
2:50pm 2.5ft 6s 5s 11 13 mph 1016.9mb 84f 84f
1:50pm 2.5ft 6s 5s 11 13 mph 1017.2mb 84f 84f
12:50pm 2.5ft 6s 5s 11 13 mph 1017.2mb 84f 84f
11:50am 2.5ft 6s 5s 9 11 mph 1017.3mb 84f 84f
10:50am 2.5ft 6s 4s 9 11 mph 1017mb 84f 84f
9:50am 2.5ft 6s 4s 11 13 mph 1016mb 84f 84f
8:50am 2.5ft 6s 4s 11 13 mph 1015.6mb 84f 84f
7:50am 3ft 5s 4s 13 16 mph 1014.8mb 83f 83f
6:50am 3ft 6s 4s 16 20 mph 1014.1mb 83f 83f
5:50am 3.5ft 6s 4s 13 18 mph 1014mb 83f 83f
4:50am 3.5ft 5s 4s 16 18 mph 1013.9mb 83f 83f
3:50am 3.5ft 5s 4s 16 20 mph 1014mb 83f 84f
2:50am 3.5ft 5s 4s 18 20 mph 1014.1mb 83f 84f
1:50am 4ft 6s 4s 18 22 mph 1014.5mb 83f 84f
12:50am 3.5ft 5s 4s 20 25 mph 1014.3mb 83f 84f
Tue 07/28 11:50pm 3.5ft 5s 4s 20 22 mph 1014.4mb 83f 84f
10:50pm 3ft 6s 4s 20 22 mph 1014.3mb 83f 84f